Rochester, New Hampshire
Current Conditions -  °F | °C
As of 7:51 PM on Wednesday 22 Oct 2014 (Local Time) from KDAW Reporting Station
Light Rain Light Rain  
Wind Chill: 41°   Ceiling: 700
Heat Index: 47°   Visibility: 2.5mi
Dew Point: 45°   Wind: 13mph
Humidity: 93%   Direction: 30°NNE
Pressure: 29.97"   Gusts: 30mph
Location:  43.31°N, 70.98°W
Report Text: KDAW 222351Z AUTO 03011G26KT 360V060 2 1/2SM -RA BR OVC007 08/07 A2997 RMK AO2 PK WND 04027/2321 RAE33B47 CIG 005V010 SLP148 P0001 60010 T00830072 10094 20083 58010
Loading
Personal Weather Stations






























Interactive Weather Map
Tropical Storm Tracking
New forecast layout! Learn more

10-Day Weather Forecast

Advertisements
Track Severe Weather on mobile